sensor_id;sensor_type;location;lat;lon;timestamp;temperature;humidity
44900;DHT22;30628;51.188;6.770;2022-11-20T00:01:30;6.60;99.90
44900;DHT22;30628;51.188;6.770;2022-11-20T00:03:57;6.50;99.90
44900;DHT22;30628;51.188;6.770;2022-11-20T00:06:24;6.40;99.90
44900;DHT22;30628;51.188;6.770;2022-11-20T00:08:51;6.40;99.90
44900;DHT22;30628;51.188;6.770;2022-11-20T00:11:19;6.50;99.90
44900;DHT22;30628;51.188;6.770;2022-11-20T00:13:49;6.50;99.90
44900;DHT22;30628;51.188;6.770;2022-11-20T00:16:17;6.50;99.90
44900;DHT22;30628;51.188;6.770;2022-11-20T00:18:44;6.50;99.90
44900;DHT22;30628;51.188;6.770;2022-11-20T00:21:13;6.50;99.90
44900;DHT22;30628;51.188;6.770;2022-11-20T00:23:39;6.40;99.90
44900;DHT22;30628;51.188;6.770;2022-11-20T00:26:07;6.30;99.90
44900;DHT22;30628;51.188;6.770;2022-11-20T00:28:34;6.30;99.90
44900;DHT22;30628;51.188;6.770;2022-11-20T00:31:08;6.60;99.90
44900;DHT22;30628;51.188;6.770;2022-11-20T00:33:35;6.60;99.90
44900;DHT22;30628;51.188;6.770;2022-11-20T00:36:07;6.50;99.90
44900;DHT22;30628;51.188;6.770;2022-11-20T00:38:34;6.40;99.90
44900;DHT22;30628;51.188;6.770;2022-11-20T00:41:02;6.40;99.90
44900;DHT22;30628;51.188;6.770;2022-11-20T00:43:28;6.20;99.90
44900;DHT22;30628;51.188;6.770;2022-11-20T00:46:02;6.30;99.90
44900;DHT22;30628;51.188;6.770;2022-11-20T00:48:29;6.20;99.90
44900;DHT22;30628;51.188;6.770;2022-11-20T00:50:56;6.40;99.90
44900;DHT22;30628;51.188;6.770;2022-11-20T00:53:22;6.50;99.90
44900;DHT22;30628;51.188;6.770;2022-11-20T00:55:56;6.40;99.90
44900;DHT22;30628;51.188;6.770;2022-11-20T00:58:23;6.30;99.90
44900;DHT22;30628;51.188;6.770;2022-11-20T01:00:50;6.20;99.90
44900;DHT22;30628;51.188;6.770;2022-11-20T01:03:17;6.20;99.90
44900;DHT22;30628;51.188;6.770;2022-11-20T01:05:44;6.10;99.90
44900;DHT22;30628;51.188;6.770;2022-11-20T01:08:10;6.20;99.90
44900;DHT22;30628;51.188;6.770;2022-11-20T01:10:36;6.30;99.90
44900;DHT22;30628;51.188;6.770;2022-11-20T01:13:02;6.40;99.90
44900;DHT22;30628;51.188;6.770;2022-11-20T01:15:47;6.40;99.90
44900;DHT22;30628;51.188;6.770;2022-11-20T01:18:13;6.30;99.90
44900;DHT22;30628;51.188;6.770;2022-11-20T01:20:40;6.30;99.90
44900;DHT22;30628;51.188;6.770;2022-11-20T01:23:06;6.20;99.90
44900;DHT22;30628;51.188;6.770;2022-11-20T01:25:34;6.30;99.90
44900;DHT22;30628;51.188;6.770;2022-11-20T01:28:00;6.20;99.90
44900;DHT22;30628;51.188;6.770;2022-11-20T01:30:26;6.40;99.90
44900;DHT22;30628;51.188;6.770;2022-11-20T01:32:55;6.60;99.90
44900;DHT22;30628;51.188;6.770;2022-11-20T01:35:21;6.80;99.90
44900;DHT22;30628;51.188;6.770;2022-11-20T01:37:47;6.60;99.90
44900;DHT22;30628;51.188;6.770;2022-11-20T01:40:13;6.60;99.90
44900;DHT22;30628;51.188;6.770;2022-11-20T01:42:46;6.60;99.90
44900;DHT22;30628;51.188;6.770;2022-11-20T01:48:36;6.80;99.90
44900;DHT22;30628;51.188;6.770;2022-11-20T01:51:05;6.50;99.90
44900;DHT22;30628;51.188;6.770;2022-11-20T01:53:34;6.50;99.90
44900;DHT22;30628;51.188;6.770;2022-11-20T01:56:05;6.50;99.90
44900;DHT22;30628;51.188;6.770;2022-11-20T01:58:36;6.40;99.90
44900;DHT22;30628;51.188;6.770;2022-11-20T02:01:04;6.40;99.90
44900;DHT22;30628;51.188;6.770;2022-11-20T02:03:30;6.40;99.90
44900;DHT22;30628;51.188;6.770;2022-11-20T02:06:11;6.50;99.90
44900;DHT22;30628;51.188;6.770;2022-11-20T02:08:38;6.40;99.90
44900;DHT22;30628;51.188;6.770;2022-11-20T02:11:05;6.20;99.90
44900;DHT22;30628;51.188;6.770;2022-11-20T02:13:31;6.20;99.90
44900;DHT22;30628;51.188;6.770;2022-11-20T02:18:47;5.80;99.90
44900;DHT22;30628;51.188;6.770;2022-11-20T02:21:37;5.80;99.90
44900;DHT22;30628;51.188;6.770;2022-11-20T02:24:15;5.60;99.90
44900;DHT22;30628;51.188;6.770;2022-11-20T02:29:14;5.60;99.90
44900;DHT22;30628;51.188;6.770;2022-11-20T02:31:42;5.50;99.90
44900;DHT22;30628;51.188;6.770;2022-11-20T02:34:17;5.60;99.90
44900;DHT22;30628;51.188;6.770;2022-11-20T02:36:43;5.50;99.90
44900;DHT22;30628;51.188;6.770;2022-11-20T02:39:11;5.50;99.90
44900;DHT22;30628;51.188;6.770;2022-11-20T02:41:39;5.50;99.90
44900;DHT22;30628;51.188;6.770;2022-11-20T02:44:05;5.40;99.90
44900;DHT22;30628;51.188;6.770;2022-11-20T02:46:32;5.30;99.90
44900;DHT22;30628;51.188;6.770;2022-11-20T02:48:58;5.30;99.90
44900;DHT22;30628;51.188;6.770;2022-11-20T02:51:24;5.20;99.90
44900;DHT22;30628;51.188;6.770;2022-11-20T02:53:51;5.30;99.90
44900;DHT22;30628;51.188;6.770;2022-11-20T02:56:17;5.20;99.90
44900;DHT22;30628;51.188;6.770;2022-11-20T02:58:43;5.20;99.90
44900;DHT22;30628;51.188;6.770;2022-11-20T03:01:09;5.10;99.90
44900;DHT22;30628;51.188;6.770;2022-11-20T03:03:41;5.00;99.90
44900;DHT22;30628;51.188;6.770;2022-11-20T03:06:07;5.00;99.90
44900;DHT22;30628;51.188;6.770;2022-11-20T03:08:34;4.90;99.90
44900;DHT22;30628;51.188;6.770;2022-11-20T03:11:06;4.90;99.90
44900;DHT22;30628;51.188;6.770;2022-11-20T03:13:33;5.00;99.90
44900;DHT22;30628;51.188;6.770;2022-11-20T03:16:08;5.10;99.90
44900;DHT22;30628;51.188;6.770;2022-11-20T03:18:34;5.10;99.90
44900;DHT22;30628;51.188;6.770;2022-11-20T03:21:00;5.00;99.90
44900;DHT22;30628;51.188;6.770;2022-11-20T03:23:29;5.00;99.90
44900;DHT22;30628;51.188;6.770;2022-11-20T03:25:55;5.00;99.90
44900;DHT22;30628;51.188;6.770;2022-11-20T03:28:21;5.00;99.90
44900;DHT22;30628;51.188;6.770;2022-11-20T03:30:47;4.90;99.90
44900;DHT22;30628;51.188;6.770;2022-11-20T03:33:13;5.00;99.90
44900;DHT22;30628;51.188;6.770;2022-11-20T03:35:39;5.10;99.90
44900;DHT22;30628;51.188;6.770;2022-11-20T03:38:05;5.20;99.90
44900;DHT22;30628;51.188;6.770;2022-11-20T03:40:33;5.30;99.90
44900;DHT22;30628;51.188;6.770;2022-11-20T03:42:59;5.20;99.90
44900;DHT22;30628;51.188;6.770;2022-11-20T03:45:26;5.10;99.90
44900;DHT22;30628;51.188;6.770;2022-11-20T03:47:52;5.10;99.90
44900;DHT22;30628;51.188;6.770;2022-11-20T03:50:18;5.20;99.90
44900;DHT22;30628;51.188;6.770;2022-11-20T03:52:44;5.00;99.90
44900;DHT22;30628;51.188;6.770;2022-11-20T03:55:10;5.00;99.90
44900;DHT22;30628;51.188;6.770;2022-11-20T03:57:36;5.00;99.90
44900;DHT22;30628;51.188;6.770;2022-11-20T04:00:04;4.90;99.90
44900;DHT22;30628;51.188;6.770;2022-11-20T04:02:30;5.00;99.90
44900;DHT22;30628;51.188;6.770;2022-11-20T04:04:56;5.10;99.90
44900;DHT22;30628;51.188;6.770;2022-11-20T04:07:22;5.10;99.90
44900;DHT22;30628;51.188;6.770;2022-11-20T04:09:48;5.00;99.90
44900;DHT22;30628;51.188;6.770;2022-11-20T04:12:14;4.90;99.90
44900;DHT22;30628;51.188;6.770;2022-11-20T04:14:40;4.90;99.90
44900;DHT22;30628;51.188;6.770;2022-11-20T04:17:07;4.80;99.90
44900;DHT22;30628;51.188;6.770;2022-11-20T04:19:33;4.80;99.90
44900;DHT22;30628;51.188;6.770;2022-11-20T04:21:59;4.80;99.90
44900;DHT22;30628;51.188;6.770;2022-11-20T04:24:26;5.00;99.90
44900;DHT22;30628;51.188;6.770;2022-11-20T04:26:52;5.00;99.90
44900;DHT22;30628;51.188;6.770;2022-11-20T04:29:18;5.00;99.90
44900;DHT22;30628;51.188;6.770;2022-11-20T04:31:44;5.10;99.90
44900;DHT22;30628;51.188;6.770;2022-11-20T04:34:11;5.10;99.90
44900;DHT22;30628;51.188;6.770;2022-11-20T04:36:37;5.20;99.90
44900;DHT22;30628;51.188;6.770;2022-11-20T04:39:05;5.30;99.90
44900;DHT22;30628;51.188;6.770;2022-11-20T04:41:34;5.50;99.90
44900;DHT22;30628;51.188;6.770;2022-11-20T04:44:02;5.90;99.90
44900;DHT22;30628;51.188;6.770;2022-11-20T04:46:31;6.00;99.90
44900;DHT22;30628;51.188;6.770;2022-11-20T04:48:57;6.00;99.90
44900;DHT22;30628;51.188;6.770;2022-11-20T04:51:23;6.10;99.90
44900;DHT22;30628;51.188;6.770;2022-11-20T04:53:49;5.80;99.90
44900;DHT22;30628;51.188;6.770;2022-11-20T04:56:16;5.80;99.90
44900;DHT22;30628;51.188;6.770;2022-11-20T04:58:42;5.70;99.90
44900;DHT22;30628;51.188;6.770;2022-11-20T05:01:17;5.50;99.90
44900;DHT22;30628;51.188;6.770;2022-11-20T05:03:44;5.50;99.90
44900;DHT22;30628;51.188;6.770;2022-11-20T05:06:12;5.70;99.90
44900;DHT22;30628;51.188;6.770;2022-11-20T05:08:39;5.70;99.90
44900;DHT22;30628;51.188;6.770;2022-11-20T05:11:15;5.40;99.90
44900;DHT22;30628;51.188;6.770;2022-11-20T05:13:41;5.30;99.90
44900;DHT22;30628;51.188;6.770;2022-11-20T05:16:13;5.40;99.90
44900;DHT22;30628;51.188;6.770;2022-11-20T05:18:40;5.30;99.90
44900;DHT22;30628;51.188;6.770;2022-11-20T05:21:07;5.20;99.90
44900;DHT22;30628;51.188;6.770;2022-11-20T05:23:34;5.10;99.90
44900;DHT22;30628;51.188;6.770;2022-11-20T05:26:01;5.00;99.90
44900;DHT22;30628;51.188;6.770;2022-11-20T05:28:29;5.00;99.90
44900;DHT22;30628;51.188;6.770;2022-11-20T05:30:55;5.00;99.90
44900;DHT22;30628;51.188;6.770;2022-11-20T05:33:22;5.10;99.90
44900;DHT22;30628;51.188;6.770;2022-11-20T05:35:48;5.20;99.90
44900;DHT22;30628;51.188;6.770;2022-11-20T05:38:15;5.10;99.90
44900;DHT22;30628;51.188;6.770;2022-11-20T05:40:41;5.20;99.90
44900;DHT22;30628;51.188;6.770;2022-11-20T05:43:07;5.00;99.90
44900;DHT22;30628;51.188;6.770;2022-11-20T05:45:33;5.10;99.90
44900;DHT22;30628;51.188;6.770;2022-11-20T05:48:00;5.20;99.90
44900;DHT22;30628;51.188;6.770;2022-11-20T05:50:29;5.30;99.90
44900;DHT22;30628;51.188;6.770;2022-11-20T05:52:58;5.50;99.90
44900;DHT22;30628;51.188;6.770;2022-11-20T05:55:26;5.50;99.90
44900;DHT22;30628;51.188;6.770;2022-11-20T05:57:53;5.30;99.90
44900;DHT22;30628;51.188;6.770;2022-11-20T06:00:20;5.30;99.90
44900;DHT22;30628;51.188;6.770;2022-11-20T06:02:46;5.10;99.90
44900;DHT22;30628;51.188;6.770;2022-11-20T06:05:13;5.20;99.90
44900;DHT22;30628;51.188;6.770;2022-11-20T06:07:39;5.30;99.90
44900;DHT22;30628;51.188;6.770;2022-11-20T06:10:05;5.20;99.90
44900;DHT22;30628;51.188;6.770;2022-11-20T06:12:40;5.10;99.90
44900;DHT22;30628;51.188;6.770;2022-11-20T06:15:07;5.10;99.90
44900;DHT22;30628;51.188;6.770;2022-11-20T06:17:33;5.20;99.90
44900;DHT22;30628;51.188;6.770;2022-11-20T06:19:59;5.20;99.90
44900;DHT22;30628;51.188;6.770;2022-11-20T06:22:25;5.20;99.90
44900;DHT22;30628;51.188;6.770;2022-11-20T06:24:51;5.30;99.90
44900;DHT22;30628;51.188;6.770;2022-11-20T06:27:18;5.30;99.90
44900;DHT22;30628;51.188;6.770;2022-11-20T06:29:44;5.30;99.90
44900;DHT22;30628;51.188;6.770;2022-11-20T06:32:10;5.20;99.90
44900;DHT22;30628;51.188;6.770;2022-11-20T06:34:36;5.20;99.90
44900;DHT22;30628;51.188;6.770;2022-11-20T06:37:02;5.30;99.90
44900;DHT22;30628;51.188;6.770;2022-11-20T06:39:28;5.20;99.90
44900;DHT22;30628;51.188;6.770;2022-11-20T06:41:54;5.00;99.90
44900;DHT22;30628;51.188;6.770;2022-11-20T06:44:20;5.00;99.90
44900;DHT22;30628;51.188;6.770;2022-11-20T06:46:46;4.90;99.90
44900;DHT22;30628;51.188;6.770;2022-11-20T06:49:12;4.80;99.90
44900;DHT22;30628;51.188;6.770;2022-11-20T06:51:39;4.80;99.90
44900;DHT22;30628;51.188;6.770;2022-11-20T06:54:05;4.90;99.90
44900;DHT22;30628;51.188;6.770;2022-11-20T06:56:31;4.90;99.90
44900;DHT22;30628;51.188;6.770;2022-11-20T06:58:57;4.90;99.90
44900;DHT22;30628;51.188;6.770;2022-11-20T07:01:23;4.90;99.90
44900;DHT22;30628;51.188;6.770;2022-11-20T07:03:49;4.80;99.90
44900;DHT22;30628;51.188;6.770;2022-11-20T07:06:16;5.20;99.90
44900;DHT22;30628;51.188;6.770;2022-11-20T07:08:42;5.40;99.90
44900;DHT22;30628;51.188;6.770;2022-11-20T07:11:12;5.50;99.90
44900;DHT22;30628;51.188;6.770;2022-11-20T07:13:38;5.50;99.90
44900;DHT22;30628;51.188;6.770;2022-11-20T07:16:06;5.50;99.90
44900;DHT22;30628;51.188;6.770;2022-11-20T07:18:33;5.30;99.90
44900;DHT22;30628;51.188;6.770;2022-11-20T07:21:10;5.10;99.90
44900;DHT22;30628;51.188;6.770;2022-11-20T07:23:36;5.00;99.90
44900;DHT22;30628;51.188;6.770;2022-11-20T07:26:08;5.00;99.90
44900;DHT22;30628;51.188;6.770;2022-11-20T07:28:34;5.00;99.90
44900;DHT22;30628;51.188;6.770;2022-11-20T07:31:01;5.10;99.90
44900;DHT22;30628;51.188;6.770;2022-11-20T07:33:27;5.00;99.90
44900;DHT22;30628;51.188;6.770;2022-11-20T07:35:53;4.90;99.90
44900;DHT22;30628;51.188;6.770;2022-11-20T07:38:20;4.90;99.90
44900;DHT22;30628;51.188;6.770;2022-11-20T07:40:46;5.00;99.90
44900;DHT22;30628;51.188;6.770;2022-11-20T07:43:12;5.00;99.90
44900;DHT22;30628;51.188;6.770;2022-11-20T07:45:38;5.00;99.90
44900;DHT22;30628;51.188;6.770;2022-11-20T07:48:04;5.00;99.90
44900;DHT22;30628;51.188;6.770;2022-11-20T07:50:30;4.90;99.90
44900;DHT22;30628;51.188;6.770;2022-11-20T07:53:04;4.90;99.90
44900;DHT22;30628;51.188;6.770;2022-11-20T07:55:31;4.90;99.90
44900;DHT22;30628;51.188;6.770;2022-11-20T07:57:57;5.00;99.90
44900;DHT22;30628;51.188;6.770;2022-11-20T08:00:25;5.10;99.90
44900;DHT22;30628;51.188;6.770;2022-11-20T08:02:51;5.20;99.90
44900;DHT22;30628;51.188;6.770;2022-11-20T08:05:17;5.30;99.90
44900;DHT22;30628;51.188;6.770;2022-11-20T08:07:44;5.30;99.90
44900;DHT22;30628;51.188;6.770;2022-11-20T08:10:12;5.40;99.90
44900;DHT22;30628;51.188;6.770;2022-11-20T08:12:49;5.40;99.90
44900;DHT22;30628;51.188;6.770;2022-11-20T08:15:35;5.50;99.90
44900;DHT22;30628;51.188;6.770;2022-11-20T08:18:09;5.60;99.90
44900;DHT22;30628;51.188;6.770;2022-11-20T08:20:39;5.60;99.90
44900;DHT22;30628;51.188;6.770;2022-11-20T08:23:07;5.80;99.90
44900;DHT22;30628;51.188;6.770;2022-11-20T08:25:35;5.90;99.90
44900;DHT22;30628;51.188;6.770;2022-11-20T08:28:06;5.90;99.90
44900;DHT22;30628;51.188;6.770;2022-11-20T08:30:33;5.80;99.90
44900;DHT22;30628;51.188;6.770;2022-11-20T08:33:05;5.80;99.90
44900;DHT22;30628;51.188;6.770;2022-11-20T08:35:36;5.80;99.90
44900;DHT22;30628;51.188;6.770;2022-11-20T08:38:06;5.80;99.90
44900;DHT22;30628;51.188;6.770;2022-11-20T08:40:33;5.90;99.90
44900;DHT22;30628;51.188;6.770;2022-11-20T08:42:59;6.10;99.90
44900;DHT22;30628;51.188;6.770;2022-11-20T08:45:25;6.10;99.90
44900;DHT22;30628;51.188;6.770;2022-11-20T08:47:51;6.10;99.90
44900;DHT22;30628;51.188;6.770;2022-11-20T08:50:18;6.00;99.90
44900;DHT22;30628;51.188;6.770;2022-11-20T08:52:44;6.10;99.90
44900;DHT22;30628;51.188;6.770;2022-11-20T08:55:11;6.20;99.90
44900;DHT22;30628;51.188;6.770;2022-11-20T08:57:37;6.30;99.90
44900;DHT22;30628;51.188;6.770;2022-11-20T09:00:06;6.40;99.90
44900;DHT22;30628;51.188;6.770;2022-11-20T09:02:33;6.50;99.90
44900;DHT22;30628;51.188;6.770;2022-11-20T09:04:59;6.50;99.90
44900;DHT22;30628;51.188;6.770;2022-11-20T09:07:28;6.50;99.90
44900;DHT22;30628;51.188;6.770;2022-11-20T09:10:05;6.50;99.90
44900;DHT22;30628;51.188;6.770;2022-11-20T09:12:31;6.60;99.90
44900;DHT22;30628;51.188;6.770;2022-11-20T09:14:57;6.70;99.90
44900;DHT22;30628;51.188;6.770;2022-11-20T09:17:23;6.70;99.90
44900;DHT22;30628;51.188;6.770;2022-11-20T09:19:49;6.60;99.90
44900;DHT22;30628;51.188;6.770;2022-11-20T09:22:15;6.50;99.90
44900;DHT22;30628;51.188;6.770;2022-11-20T09:24:41;6.60;99.90
44900;DHT22;30628;51.188;6.770;2022-11-20T09:27:08;6.50;99.90
44900;DHT22;30628;51.188;6.770;2022-11-20T09:29:34;6.60;99.90
44900;DHT22;30628;51.188;6.770;2022-11-20T09:32:01;6.60;99.90
44900;DHT22;30628;51.188;6.770;2022-11-20T09:34:27;6.60;99.90
44900;DHT22;30628;51.188;6.770;2022-11-20T09:36:53;6.40;99.90
44900;DHT22;30628;51.188;6.770;2022-11-20T09:39:19;6.40;99.90
44900;DHT22;30628;51.188;6.770;2022-11-20T09:47:26;6.70;99.90
44900;DHT22;30628;51.188;6.770;2022-11-20T09:53:04;6.70;99.90
44900;DHT22;30628;51.188;6.770;2022-11-20T09:55:36;6.70;99.90
44900;DHT22;30628;51.188;6.770;2022-11-20T09:58:06;6.60;99.90
44900;DHT22;30628;51.188;6.770;2022-11-20T10:00:34;6.50;99.90
44900;DHT22;30628;51.188;6.770;2022-11-20T10:03:14;6.50;99.90
44900;DHT22;30628;51.188;6.770;2022-11-20T10:05:47;6.60;99.90
44900;DHT22;30628;51.188;6.770;2022-11-20T10:08:21;6.60;99.90
44900;DHT22;30628;51.188;6.770;2022-11-20T10:11:27;6.70;99.90
44900;DHT22;30628;51.188;6.770;2022-11-20T10:22:32;6.90;99.90
44900;DHT22;30628;51.188;6.770;2022-11-20T10:25:18;6.90;99.90
44900;DHT22;30628;51.188;6.770;2022-11-20T10:30:23;6.90;99.90
44900;DHT22;30628;51.188;6.770;2022-11-20T10:33:04;6.90;99.90
44900;DHT22;30628;51.188;6.770;2022-11-20T10:38:03;6.80;99.90
44900;DHT22;30628;51.188;6.770;2022-11-20T10:40:43;6.90;99.90
44900;DHT22;30628;51.188;6.770;2022-11-20T10:43:32;6.70;99.90
44900;DHT22;30628;51.188;6.770;2022-11-20T10:46:03;6.80;99.90
44900;DHT22;30628;51.188;6.770;2022-11-20T10:48:32;6.60;99.90
44900;DHT22;30628;51.188;6.770;2022-11-20T10:56:40;6.70;99.90
44900;DHT22;30628;51.188;6.770;2022-11-20T11:02:01;6.70;99.90
44900;DHT22;30628;51.188;6.770;2022-11-20T11:04:39;6.80;99.90
44900;DHT22;30628;51.188;6.770;2022-11-20T11:07:15;6.80;99.90
44900;DHT22;30628;51.188;6.770;2022-11-20T11:09:56;6.80;99.90
44900;DHT22;30628;51.188;6.770;2022-11-20T11:12:25;6.90;99.90
44900;DHT22;30628;51.188;6.770;2022-11-20T11:14:54;6.90;99.90
44900;DHT22;30628;51.188;6.770;2022-11-20T11:17:27;6.90;99.90
44900;DHT22;30628;51.188;6.770;2022-11-20T11:19:58;6.90;99.90
44900;DHT22;30628;51.188;6.770;2022-11-20T11:22:25;6.90;99.90
44900;DHT22;30628;51.188;6.770;2022-11-20T11:24:53;6.90;99.90
44900;DHT22;30628;51.188;6.770;2022-11-20T11:27:19;6.70;99.90
44900;DHT22;30628;51.188;6.770;2022-11-20T11:29:46;6.70;99.90
44900;DHT22;30628;51.188;6.770;2022-11-20T11:32:20;6.80;99.90
44900;DHT22;30628;51.188;6.770;2022-11-20T11:35:18;6.90;99.90
44900;DHT22;30628;51.188;6.770;2022-11-20T11:37:45;7.00;99.90
44900;DHT22;30628;51.188;6.770;2022-11-20T11:40:13;7.00;99.90
44900;DHT22;30628;51.188;6.770;2022-11-20T11:42:44;6.80;99.90
44900;DHT22;30628;51.188;6.770;2022-11-20T11:45:14;6.90;99.90
44900;DHT22;30628;51.188;6.770;2022-11-20T11:58:19;7.10;99.90
44900;DHT22;30628;51.188;6.770;2022-11-20T12:00:58;7.10;99.90
44900;DHT22;30628;51.188;6.770;2022-11-20T12:03:35;7.20;99.90
44900;DHT22;30628;51.188;6.770;2022-11-20T12:06:15;7.20;99.90
44900;DHT22;30628;51.188;6.770;2022-11-20T12:08:57;7.20;99.90
44900;DHT22;30628;51.188;6.770;2022-11-20T12:11:43;7.30;99.90
44900;DHT22;30628;51.188;6.770;2022-11-20T12:14:27;7.40;99.90
44900;DHT22;30628;51.188;6.770;2022-11-20T12:16:56;7.20;99.90
44900;DHT22;30628;51.188;6.770;2022-11-20T12:19:23;7.30;99.90
44900;DHT22;30628;51.188;6.770;2022-11-20T12:22:34;7.30;99.90
44900;DHT22;30628;51.188;6.770;2022-11-20T12:30:14;7.30;99.90
44900;DHT22;30628;51.188;6.770;2022-11-20T12:33:00;7.30;99.90
44900;DHT22;30628;51.188;6.770;2022-11-20T12:41:22;7.20;99.90
44900;DHT22;30628;51.188;6.770;2022-11-20T12:50:14;7.10;99.90
44900;DHT22;30628;51.188;6.770;2022-11-20T12:52:53;7.10;99.90
44900;DHT22;30628;51.188;6.770;2022-11-20T12:55:30;7.10;99.90
44900;DHT22;30628;51.188;6.770;2022-11-20T12:58:34;7.20;99.90
44900;DHT22;30628;51.188;6.770;2022-11-20T13:06:52;7.20;99.90
44900;DHT22;30628;51.188;6.770;2022-11-20T13:09:20;7.20;99.90
44900;DHT22;30628;51.188;6.770;2022-11-20T13:18:01;7.40;99.90
44900;DHT22;30628;51.188;6.770;2022-11-20T13:20:29;7.30;99.90
44900;DHT22;30628;51.188;6.770;2022-11-20T13:22:57;7.30;99.90
44900;DHT22;30628;51.188;6.770;2022-11-20T13:25:26;7.20;99.90
44900;DHT22;30628;51.188;6.770;2022-11-20T13:27:54;7.30;99.90
44900;DHT22;30628;51.188;6.770;2022-11-20T13:30:25;7.20;99.90
44900;DHT22;30628;51.188;6.770;2022-11-20T13:32:57;7.20;99.90
44900;DHT22;30628;51.188;6.770;2022-11-20T13:40:29;7.40;99.90
44900;DHT22;30628;51.188;6.770;2022-11-20T13:43:18;7.40;99.90
44900;DHT22;30628;51.188;6.770;2022-11-20T13:46:05;7.30;99.90
44900;DHT22;30628;51.188;6.770;2022-11-20T13:48:34;7.30;99.90
44900;DHT22;30628;51.188;6.770;2022-11-20T14:02:16;7.30;99.90
44900;DHT22;30628;51.188;6.770;2022-11-20T14:04:48;7.30;99.90
44900;DHT22;30628;51.188;6.770;2022-11-20T14:07:16;7.30;99.90
44900;DHT22;30628;51.188;6.770;2022-11-20T14:09:51;7.40;99.90
44900;DHT22;30628;51.188;6.770;2022-11-20T14:12:21;7.30;99.90
44900;DHT22;30628;51.188;6.770;2022-11-20T14:14:52;7.40;99.90
44900;DHT22;30628;51.188;6.770;2022-11-20T14:17:22;7.40;99.90
44900;DHT22;30628;51.188;6.770;2022-11-20T14:19:50;7.50;99.90
44900;DHT22;30628;51.188;6.770;2022-11-20T14:22:24;7.30;99.90
44900;DHT22;30628;51.188;6.770;2022-11-20T14:27:42;7.30;99.90
44900;DHT22;30628;51.188;6.770;2022-11-20T14:32:42;7.30;99.90
44900;DHT22;30628;51.188;6.770;2022-11-20T14:35:14;7.30;99.90
44900;DHT22;30628;51.188;6.770;2022-11-20T14:37:45;7.40;99.90
44900;DHT22;30628;51.188;6.770;2022-11-20T14:40:32;7.40;99.90
44900;DHT22;30628;51.188;6.770;2022-11-20T14:43:01;7.50;99.90
44900;DHT22;30628;51.188;6.770;2022-11-20T14:45:38;7.50;99.90
44900;DHT22;30628;51.188;6.770;2022-11-20T14:48:04;7.40;99.90
44900;DHT22;30628;51.188;6.770;2022-11-20T14:50:31;7.30;99.90
44900;DHT22;30628;51.188;6.770;2022-11-20T14:52:59;7.30;99.90
44900;DHT22;30628;51.188;6.770;2022-11-20T14:55:31;7.30;99.90
44900;DHT22;30628;51.188;6.770;2022-11-20T14:57:59;7.30;99.90
44900;DHT22;30628;51.188;6.770;2022-11-20T15:00:26;7.30;99.90
44900;DHT22;30628;51.188;6.770;2022-11-20T15:02:53;7.40;99.90
44900;DHT22;30628;51.188;6.770;2022-11-20T15:05:22;7.30;99.90
44900;DHT22;30628;51.188;6.770;2022-11-20T15:07:51;7.40;99.90
44900;DHT22;30628;51.188;6.770;2022-11-20T15:10:27;7.50;99.90
44900;DHT22;30628;51.188;6.770;2022-11-20T15:13:02;7.40;99.90
44900;DHT22;30628;51.188;6.770;2022-11-20T15:15:30;7.30;99.90
44900;DHT22;30628;51.188;6.770;2022-11-20T15:17:58;7.20;99.90
44900;DHT22;30628;51.188;6.770;2022-11-20T15:20:27;7.30;99.90
44900;DHT22;30628;51.188;6.770;2022-11-20T15:22:58;7.40;99.90
44900;DHT22;30628;51.188;6.770;2022-11-20T15:25:25;7.40;99.90
44900;DHT22;30628;51.188;6.770;2022-11-20T15:27:57;7.30;99.90
44900;DHT22;30628;51.188;6.770;2022-11-20T15:30:23;7.20;99.90
44900;DHT22;30628;51.188;6.770;2022-11-20T15:32:49;7.20;99.90
44900;DHT22;30628;51.188;6.770;2022-11-20T15:35:16;7.20;99.90
44900;DHT22;30628;51.188;6.770;2022-11-20T15:37:42;7.20;99.90
44900;DHT22;30628;51.188;6.770;2022-11-20T15:40:09;7.20;99.90
44900;DHT22;30628;51.188;6.770;2022-11-20T15:42:36;7.20;99.90
44900;DHT22;30628;51.188;6.770;2022-11-20T15:45:02;7.30;99.90
44900;DHT22;30628;51.188;6.770;2022-11-20T15:47:31;7.20;99.90
44900;DHT22;30628;51.188;6.770;2022-11-20T15:49:58;7.20;99.90
44900;DHT22;30628;51.188;6.770;2022-11-20T15:52:24;7.20;99.90
44900;DHT22;30628;51.188;6.770;2022-11-20T15:54:50;7.10;99.90
44900;DHT22;30628;51.188;6.770;2022-11-20T15:57:17;7.00;99.90
44900;DHT22;30628;51.188;6.770;2022-11-20T15:59:43;7.00;99.90
44900;DHT22;30628;51.188;6.770;2022-11-20T16:02:11;7.10;99.90
44900;DHT22;30628;51.188;6.770;2022-11-20T16:04:39;7.00;99.90
44900;DHT22;30628;51.188;6.770;2022-11-20T16:07:05;7.00;99.90
44900;DHT22;30628;51.188;6.770;2022-11-20T16:09:31;7.00;99.90
44900;DHT22;30628;51.188;6.770;2022-11-20T16:11:58;7.00;99.90
44900;DHT22;30628;51.188;6.770;2022-11-20T16:14:27;7.00;99.90
44900;DHT22;30628;51.188;6.770;2022-11-20T16:17:12;7.00;99.90
44900;DHT22;30628;51.188;6.770;2022-11-20T16:19:39;7.00;99.90
44900;DHT22;30628;51.188;6.770;2022-11-20T16:22:05;7.00;99.90
44900;DHT22;30628;51.188;6.770;2022-11-20T16:24:31;7.10;99.90
44900;DHT22;30628;51.188;6.770;2022-11-20T16:26:57;7.10;99.90
44900;DHT22;30628;51.188;6.770;2022-11-20T16:29:23;7.20;99.90
44900;DHT22;30628;51.188;6.770;2022-11-20T16:31:50;7.20;99.90
44900;DHT22;30628;51.188;6.770;2022-11-20T16:34:16;7.20;99.90
44900;DHT22;30628;51.188;6.770;2022-11-20T16:36:43;7.30;99.90
44900;DHT22;30628;51.188;6.770;2022-11-20T16:39:11;7.40;99.90
44900;DHT22;30628;51.188;6.770;2022-11-20T16:41:38;7.30;99.90
44900;DHT22;30628;51.188;6.770;2022-11-20T16:44:09;7.20;99.90
44900;DHT22;30628;51.188;6.770;2022-11-20T16:46:35;7.30;99.90
44900;DHT22;30628;51.188;6.770;2022-11-20T16:49:06;7.30;99.90
44900;DHT22;30628;51.188;6.770;2022-11-20T16:51:35;7.20;99.90
44900;DHT22;30628;51.188;6.770;2022-11-20T16:54:03;7.20;99.90
44900;DHT22;30628;51.188;6.770;2022-11-20T16:56:30;7.20;99.90
44900;DHT22;30628;51.188;6.770;2022-11-20T16:58:58;7.20;99.90
44900;DHT22;30628;51.188;6.770;2022-11-20T17:01:26;7.30;99.90
44900;DHT22;30628;51.188;6.770;2022-11-20T17:04:01;7.20;99.90
44900;DHT22;30628;51.188;6.770;2022-11-20T17:06:33;7.20;99.90
44900;DHT22;30628;51.188;6.770;2022-11-20T17:08:59;7.20;99.90
44900;DHT22;30628;51.188;6.770;2022-11-20T17:11:27;7.30;99.90
44900;DHT22;30628;51.188;6.770;2022-11-20T17:13:54;7.20;99.90
44900;DHT22;30628;51.188;6.770;2022-11-20T17:16:23;7.30;99.90
44900;DHT22;30628;51.188;6.770;2022-11-20T17:18:49;7.40;99.90
44900;DHT22;30628;51.188;6.770;2022-11-20T17:21:17;7.40;99.90
44900;DHT22;30628;51.188;6.770;2022-11-20T17:23:44;7.30;99.90
44900;DHT22;30628;51.188;6.770;2022-11-20T17:28:39;7.30;99.90
44900;DHT22;30628;51.188;6.770;2022-11-20T17:31:11;7.30;99.90
44900;DHT22;30628;51.188;6.770;2022-11-20T17:33:40;7.30;99.90
44900;DHT22;30628;51.188;6.770;2022-11-20T17:36:08;7.30;99.90
44900;DHT22;30628;51.188;6.770;2022-11-20T17:38:34;7.30;99.90
44900;DHT22;30628;51.188;6.770;2022-11-20T17:41:05;7.30;99.90